KELA

Details ICAO KELA
Name EAGLE LAKE
Region United States
Timezone America/Chicago (UTC-6.0)
Plans Departing 1
Arriving 2
Stats Elevation 184 ft / 56 m (AMSL)
Location 29.600673° -96.322057°
Runways 1
Magnetic Variation 3.050° E
Sunrise 2017-12-14 13:13:40 UTC / 2017-12-14 07:13:40 Local
Sunset 2017-12-14 23:29:19 UTC / 2017-12-14 17:29:19 Local
Advertisement - Login to hide

Runways

ID Width Length Bearing (true) Bearing (mag) Surface Threshold Offset Overrun Length
17 60 ft / 18 m 3,814 ft / 1,162 m 171.32° 168.27° Asphalt 0 ft / 0 m 0 ft / 0 m
35 60 ft / 18 m 3,814 ft / 1,162 m 351.32° 348.27° Asphalt 0 ft / 0 m 0 ft / 0 m

Map

Weather


0- 5 10 15 20 25 30 35+ Temperature / ° C

Clouds and Precipitation
Forecast for 2017-12-15 00:00 UTC. Updated 2 hours ago

Ground ~20,000 ft ~40,000 ft Winds

METAR

KELA 142055Z AUTO 33004KT 10SM CLR 18/06 A2996 RMK AO2 T01770063

TAF

Not found

Frequencies

Unicom 122.90 MHz CTAF
Warning: Do not use this data for real-world aviation or navigation. No guarantee of current accuracy is given.